Time;durP1;ratioP1;P1;durP2;ratioP2;P2;SDS_P1;SDS_P2;PMS_P1;PMS_P2;Temp;Humidity;BMP_temperature;BMP_pressure;BME280_temperature;BME280_humidity;BME280_pressure;Samples;Min_cycle;Max_cycle;Signal;HPM_P1;HPM_P2
2022/05/30 00:00:25;;;;;;;22.27;14.30;;;9.40;99.90;;;;;;10442289;28;20540;-83
2022/05/30 00:05:27;;;;;;;23.97;14.57;;;9.40;99.90;;;;;;10446403;28;20025;-82
2022/05/30 00:10:29;;;;;;;23.77;13.37;;;9.40;99.90;;;;;;10445950;28;20052;-81
2022/05/30 00:15:32;;;;;;;25.10;15.07;;;9.40;99.90;;;;;;10447086;28;20025;-82
2022/05/30 00:20:32;;;;;;;22.07;12.67;;;9.30;99.90;;;;;;10446843;28;20040;-83
2022/05/30 00:25:33;;;;;;;25.63;13.73;;;9.30;99.90;;;;;;10441698;28;20037;-82
2022/05/30 00:30:34;;;;;;;25.87;13.40;;;9.20;99.90;;;;;;10440921;28;20416;-82
2022/05/30 00:35:34;;;;;;;24.03;15.30;;;9.20;99.90;;;;;;10445941;28;20192;-82
2022/05/30 00:40:36;;;;;;;32.07;16.30;;;9.20;99.90;;;;;;10436142;28;20078;-82
2022/05/30 00:45:36;;;;;;;23.67;12.97;;;9.30;99.90;;;;;;10445596;28;20853;-82
2022/05/30 00:50:38;;;;;;;24.63;13.97;;;9.20;99.90;;;;;;10441531;28;20086;-82
2022/05/30 00:55:40;;;;;;;26.70;14.43;;;9.20;99.90;;;;;;10446446;28;20492;-81
2022/05/30 01:00:40;;;;;;;20.07;13.33;;;9.20;99.90;;;;;;10414347;28;20102;-82
2022/05/30 01:11:02;;;;;;;25.83;14.00;;;9.10;99.90;;;;;;10452749;28;20499;-82
2022/05/30 01:16:03;;;;;;;22.80;14.30;;;9.10;99.90;;;;;;10447695;28;20120;-81
2022/05/30 01:21:22;;;;;;;25.90;14.47;;;9.10;99.90;;;;;;10435396;28;20039;-81
2022/05/30 01:26:31;;;;;;;32.57;16.20;;;9.10;99.90;;;;;;10444972;28;20464;-80
2022/05/30 01:31:32;;;;;;;29.47;16.83;;;9.10;99.90;;;;;;10426502;28;20136;-82
2022/05/30 01:36:34;;;;;;;29.60;16.00;;;9.10;99.90;;;;;;10414772;28;20096;-82
2022/05/30 01:41:35;;;;;;;28.10;15.63;;;9.10;99.90;;;;;;10445906;28;20114;-82
2022/05/30 01:46:36;;;;;;;27.73;16.17;;;9.10;99.90;;;;;;10443560;28;20603;-82
2022/05/30 01:51:36;;;;;;;31.63;17.87;;;9.00;99.90;;;;;;10443462;28;20040;-80
2022/05/30 01:56:37;;;;;;;26.13;15.37;;;9.10;99.90;;;;;;10457049;28;20059;-82
2022/05/30 02:01:40;;;;;;;33.30;17.93;;;9.10;99.90;;;;;;10444573;28;20392;-80
2022/05/30 02:06:41;;;;;;;28.17;17.10;;;9.10;99.90;;;;;;10443759;28;20021;-81
2022/05/30 02:11:42;;;;;;;34.90;17.80;;;9.20;99.90;;;;;;10444171;28;20061;-82
2022/05/30 02:17:01;;;;;;;22.50;15.23;;;9.10;99.90;;;;;;10455320;28;20033;-81
2022/05/30 02:22:02;;;;;;;29.17;16.93;;;9.10;99.90;;;;;;10450159;28;20064;-81
2022/05/30 02:27:03;;;;;;;24.77;14.97;;;9.10;99.90;;;;;;10453037;28;20017;-80
2022/05/30 02:32:04;;;;;;;30.20;16.00;;;9.00;99.90;;;;;;10436861;28;20090;-81
2022/05/30 02:37:06;;;;;;;29.10;14.53;;;9.00;99.90;;;;;;10449742;28;20029;-80
2022/05/30 02:42:07;;;;;;;32.60;16.50;;;8.90;99.90;;;;;;10451666;28;20021;-80
2022/05/30 02:47:08;;;;;;;28.47;16.73;;;8.90;99.90;;;;;;10448503;28;20025;-81
2022/05/30 02:52:09;;;;;;;37.83;19.53;;;8.90;99.90;;;;;;10429062;28;20519;-80
2022/05/30 02:57:09;;;;;;;32.67;19.70;;;9.00;99.90;;;;;;10450253;28;20043;-82
2022/05/30 03:02:10;;;;;;;35.70;21.27;;;8.90;99.90;;;;;;10447401;28;20111;-81
2022/05/30 03:07:10;;;;;;;34.20;18.87;;;9.00;99.90;;;;;;10447008;28;20037;-81
2022/05/30 03:12:11;;;;;;;33.80;18.80;;;9.10;99.90;;;;;;10455929;28;20403;-83
2022/05/30 03:17:12;;;;;;;28.30;17.57;;;9.10;99.90;;;;;;10446192;28;20036;-81
2022/05/30 03:22:12;;;;;;;37.10;19.80;;;9.10;99.90;;;;;;10449133;28;20040;-82
2022/05/30 03:27:13;;;;;;;30.50;18.23;;;9.20;99.90;;;;;;10448231;28;20551;-82
2022/05/30 03:32:13;;;;;;;35.13;19.13;;;9.20;99.90;;;;;;10449173;28;20056;-82
2022/05/30 03:37:14;;;;;;;38.63;21.47;;;9.30;99.90;;;;;;10446757;28;20094;-82
2022/05/30 03:42:15;;;;;;;32.23;18.30;;;9.30;99.90;;;;;;10463055;28;20554;-83
2022/05/30 03:47:15;;;;;;;30.43;16.73;;;9.30;99.90;;;;;;10445308;28;20033;-82
2022/05/30 03:52:16;;;;;;;29.37;16.10;;;9.30;99.90;;;;;;10443094;28;20044;-83
2022/05/30 03:57:17;;;;;;;22.47;13.67;;;9.30;99.90;;;;;;10425740;28;20082;-83
2022/05/30 04:02:17;;;;;;;19.57;12.60;;;9.30;99.90;;;;;;10442679;28;20079;-82
2022/05/30 04:07:18;;;;;;;18.77;11.87;;;9.20;99.90;;;;;;10446361;28;20103;-81
2022/05/30 04:12:20;;;;;;;24.17;13.37;;;9.00;99.90;;;;;;10447577;28;20089;-81
2022/05/30 04:17:22;;;;;;;21.77;14.70;;;9.00;99.90;;;;;;10434811;28;20052;-81
2022/05/30 04:22:22;;;;;;;23.97;15.27;;;9.00;99.90;;;;;;10437418;28;20032;-83
2022/05/30 04:27:23;;;;;;;28.03;17.73;;;9.00;99.90;;;;;;10446963;28;20040;-82
2022/05/30 04:32:26;;;;;;;27.73;15.73;;;9.00;99.90;;;;;;10445648;28;20045;-82
2022/05/30 04:37:30;;;;;;;26.10;15.90;;;9.10;99.90;;;;;;10433563;28;20049;-81
2022/05/30 04:42:31;;;;;;;27.37;14.90;;;9.10;99.90;;;;;;10444829;28;20243;-85
2022/05/30 04:47:36;;;;;;;21.53;14.90;;;9.00;99.90;;;;;;10447496;28;20033;-82
2022/05/30 04:52:36;;;;;;;22.93;12.70;;;9.10;99.90;;;;;;10447062;28;20365;-82
2022/05/30 04:57:45;;;;;;;27.00;15.10;;;9.00;99.90;;;;;;10448001;28;20032;-82
2022/05/30 05:02:46;;;;;;;26.90;16.37;;;9.00;99.90;;;;;;10443584;28;20032;-82
2022/05/30 05:08:00;;;;;;;28.53;16.57;;;9.10;99.90;;;;;;10428741;28;20087;-82
2022/05/30 05:13:00;;;;;;;18.23;11.97;;;9.20;99.90;;;;;;10446658;28;20048;-82
2022/05/30 05:18:02;;;;;;;15.27;11.20;;;9.20;99.90;;;;;;10446409;28;20036;-83
2022/05/30 05:23:03;;;;;;;16.97;11.87;;;9.20;99.90;;;;;;10446773;28;20037;-82
2022/05/30 05:28:04;;;;;;;19.13;11.27;;;9.10;99.90;;;;;;10445647;28;20033;-82
2022/05/30 05:33:04;;;;;;;17.53;10.33;;;9.10;99.90;;;;;;10445929;28;20514;-83
2022/05/30 05:38:05;;;;;;;24.07;14.40;;;9.10;99.90;;;;;;10456762;28;20123;-83
2022/05/30 05:43:06;;;;;;;18.63;11.27;;;9.20;99.90;;;;;;10444898;28;20025;-82
2022/05/30 05:48:08;;;;;;;23.37;14.57;;;9.30;99.90;;;;;;10462039;28;20065;-82
2022/05/30 05:53:12;;;;;;;17.10;10.43;;;9.40;99.90;;;;;;10429283;28;20045;-85
2022/05/30 05:58:13;;;;;;;16.77;11.40;;;9.50;99.90;;;;;;10468273;28;20032;-83
2022/05/30 06:03:13;;;;;;;11.87;8.30;;;9.60;99.90;;;;;;10467283;28;20484;-82
2022/05/30 06:08:14;;;;;;;8.90;7.93;;;9.70;99.90;;;;;;10453474;28;20434;-82
2022/05/30 06:13:14;;;;;;;10.70;7.03;;;9.90;99.90;;;;;;10468573;28;20057;-87
2022/05/30 06:18:15;;;;;;;17.53;8.20;;;10.10;99.90;;;;;;10452734;28;20116;-82
2022/05/30 06:23:15;;;;;;;11.27;6.95;;;10.30;99.90;;;;;;10465574;28;20020;-83
2022/05/30 06:28:19;;;;;;;12.25;8.18;;;10.30;99.90;;;;;;10462120;28;20029;-85
2022/05/30 06:33:20;;;;;;;9.63;6.75;;;10.40;99.90;;;;;;10452660;28;20060;-83
2022/05/30 06:38:20;;;;;;;7.63;6.82;;;10.40;99.90;;;;;;10458039;28;20104;-84
2022/05/30 06:43:21;;;;;;;10.83;7.50;;;10.40;99.90;;;;;;10452691;28;20032;-82
2022/05/30 06:48:21;;;;;;;9.45;5.75;;;10.50;99.90;;;;;;10452916;28;20021;-85
2022/05/30 06:53:22;;;;;;;8.43;5.30;;;10.60;99.90;;;;;;10452689;28;20041;-82
2022/05/30 06:58:23;;;;;;;9.73;7.45;;;10.60;99.90;;;;;;10451513;28;20029;-82
2022/05/30 07:03:23;;;;;;;7.97;5.90;;;10.90;99.90;;;;;;10450336;28;20730;-84
2022/05/30 07:08:24;;;;;;;10.05;5.78;;;11.10;99.90;;;;;;10448260;28;20032;-84
2022/05/30 07:13:25;;;;;;;7.50;5.50;;;11.40;99.90;;;;;;10449987;28;20052;-85
2022/05/30 07:18:26;;;;;;;8.75;5.18;;;11.70;99.90;;;;;;10448898;28;20021;-82
2022/05/30 07:23:28;;;;;;;8.07;5.57;;;11.80;99.90;;;;;;10447025;28;20025;-86
2022/05/30 07:28:30;;;;;;;7.38;5.45;;;11.70;99.90;;;;;;10437626;28;20463;-82
2022/05/30 07:33:32;;;;;;;25.75;14.40;;;11.70;99.90;;;;;;10441345;28;20036;-83
2022/05/30 07:38:35;;;;;;;26.35;13.35;;;11.70;99.90;;;;;;10443943;28;20427;-82
2022/05/30 07:43:36;;;;;;;14.40;7.30;;;11.70;99.90;;;;;;10447512;28;20493;-85
2022/05/30 07:48:37;;;;;;;8.48;6.22;;;11.70;99.90;;;;;;10446835;28;20053;-86
2022/05/30 07:53:41;;;;;;;11.07;5.60;;;11.70;99.90;;;;;;10441020;28;20463;-82
2022/05/30 07:58:41;;;;;;;8.90;4.97;;;12.20;99.90;;;;;;10450755;28;20032;-82
2022/05/30 08:03:42;;;;;;;11.02;5.28;;;12.30;99.90;;;;;;10451690;28;20534;-84
2022/05/30 08:08:43;;;;;;;9.15;6.20;;;12.10;99.90;;;;;;10446543;28;20036;-82
2022/05/30 08:13:47;;;;;;;15.80;9.35;;;12.00;99.90;;;;;;10442542;28;20139;-84
2022/05/30 08:18:48;;;;;;;12.00;9.25;;;12.10;99.90;;;;;;10447370;28;20032;-82
2022/05/30 08:23:48;;;;;;;12.13;7.82;;;12.20;99.90;;;;;;10444022;28;20479;-82
2022/05/30 08:28:49;;;;;;;6.55;5.57;;;12.20;99.90;;;;;;10448609;28;20486;-82
2022/05/30 08:33:49;;;;;;;8.65;6.35;;;12.20;99.90;;;;;;10448913;28;20037;-81
2022/05/30 08:41:46;;;;;;;11.70;7.10;;;12.10;99.90;;;;;;10448626;28;20025;-82
2022/05/30 08:44:11;;;;;;;5.80;5.10;;;12.10;99.90;;;;;;10446710;28;20029;-82
2022/05/30 08:49:14;;;;;;;6.13;3.28;;;12.10;99.90;;;;;;10455260;28;20033;-83
2022/05/30 08:54:24;;;;;;;5.65;3.50;;;12.00;99.90;;;;;;10426143;28;20078;-82
2022/05/30 08:59:32;;;;;;;6.85;4.75;;;12.20;99.90;;;;;;10447213;28;20111;-80
2022/05/30 09:04:55;;;;;;;5.40;3.03;;;12.30;99.90;;;;;;10446951;28;20036;-81
2022/05/30 09:10:05;;;;;;;7.22;4.65;;;12.20;99.90;;;;;;10453389;28;20035;-81
2022/05/30 09:15:22;;;;;;;13.68;8.20;;;12.30;99.90;;;;;;10453399;28;20045;-82
2022/05/30 09:20:24;;;;;;;7.97;4.95;;;12.50;99.90;;;;;;10446651;28;20033;-82
2022/05/30 09:30:59;;;;;;;3.17;2.88;;;12.90;99.90;;;;;;10446124;28;20515;-82
2022/05/30 09:36:14;;;;;;;4.10;3.70;;;13.00;99.90;;;;;;10445834;28;20103;-81
2022/05/30 09:41:37;;;;;;;5.38;3.58;;;13.40;99.90;;;;;;10445905;28;20083;-82
2022/05/30 09:46:43;;;;;;;3.33;2.92;;;13.50;99.90;;;;;;10437124;28;20094;-82
2022/05/30 09:51:52;;;;;;;3.15;2.80;;;14.20;99.90;;;;;;10432298;28;20029;-83
2022/05/30 09:57:06;;;;;;;5.22;3.20;;;14.60;99.90;;;;;;10445732;28;20040;-82
2022/05/30 10:02:37;;;;;;;4.63;3.08;;;14.50;99.90;;;;;;10445592;28;20021;-82
2022/05/30 10:08:02;;;;;;;2.72;2.50;;;14.20;99.90;;;;;;10432735;28;20551;-82
2022/05/30 10:13:06;;;;;;;4.97;3.17;;;14.60;99.90;;;;;;10445414;28;20144;-82
2022/05/30 10:18:26;;;;;;;3.30;3.00;;;14.30;99.90;;;;;;10445296;28;20082;-83
2022/05/30 10:29:48;;;;;;;4.80;3.42;;;14.20;99.90;;;;;;10439549;28;20040;-82
2022/05/30 10:35:01;;;;;;;4.78;4.10;;;14.70;99.90;;;;;;10444485;28;20071;-83
2022/05/30 10:40:14;;;;;;;4.15;2.78;;;14.80;99.90;;;;;;10447046;28;20609;-82
2022/05/30 10:45:40;;;;;;;3.78;3.47;;;14.60;99.90;;;;;;10429126;28;20044;-82
2022/05/30 10:50:53;;;;;;;;;;;14.90;99.90;;;;;;10448703;28;20115;-81
2022/05/30 10:55:58;;;;;;;3.30;3.00;;;14.80;99.90;;;;;;10432623;28;19912;-82
2022/05/30 11:01:07;;;;;;;5.05;3.40;;;15.50;99.90;;;;;;10442713;28;20013;-82
2022/05/30 11:06:27;;;;;;;4.45;3.90;;;15.60;99.90;;;;;;10445809;28;20104;-82
2022/05/30 11:11:44;;;;;;;6.88;4.97;;;15.20;99.90;;;;;;10447145;28;20059;-82
2022/05/30 11:16:52;;;;;;;7.05;4.20;;;14.60;99.90;;;;;;10446960;28;20033;-81
2022/05/30 11:22:17;;;;;;;4.95;4.00;;;14.40;99.90;;;;;;10446572;28;20025;-82
2022/05/30 11:27:23;;;;;;;4.70;4.10;;;14.70;99.90;;;;;;10441434;28;20055;-84
2022/05/30 11:32:57;;;;;;;4.18;3.63;;;14.60;99.90;;;;;;10434828;28;20105;-84
2022/05/30 11:38:23;;;;;;;6.57;4.15;;;14.80;99.90;;;;;;10446166;28;20060;-81
2022/05/30 11:43:35;;;;;;;5.17;4.17;;;15.80;99.90;;;;;;10449538;28;20407;-82
2022/05/30 11:48:48;;;;;;;5.30;3.72;;;16.10;99.90;;;;;;10439684;28;20264;-84
2022/05/30 11:54:20;;;;;;;7.05;4.40;;;16.10;99.90;;;;;;10449189;28;20036;-82
2022/05/30 11:59:56;;;;;;;6.65;5.18;;;17.00;99.90;;;;;;10453643;28;20471;-82
2022/05/30 12:05:34;;;;;;;4.43;3.80;;;17.30;99.90;;;;;;10420417;28;20025;-82
2022/05/30 12:11:08;;;;;;;3.15;2.50;;;16.90;99.90;;;;;;10447981;28;20079;-82
2022/05/30 12:16:18;;;;;;;5.70;3.08;;;16.90;99.90;;;;;;10444076;28;20040;-84
2022/05/30 12:26:49;;;;;;;4.03;2.92;;;17.70;99.90;;;;;;10443623;28;20057;-84
2022/05/30 12:32:16;;;;;;;3.72;2.83;;;17.70;99.90;;;;;;10441410;28;20503;-84
2022/05/30 12:37:17;;;;;;;6.15;3.63;;;17.80;99.90;;;;;;10442279;28;20420;-82
2022/05/30 12:42:33;;;;;;;4.40;3.97;;;18.00;99.90;;;;;;10448591;28;20025;-83
2022/05/30 12:47:35;;;;;;;6.18;4.03;;;18.40;99.90;;;;;;10434985;28;20027;-84
2022/05/30 12:52:54;;;;;;;4.45;3.70;;;18.00;99.90;;;;;;10443612;28;20494;-83
2022/05/30 12:57:54;;;;;;;5.38;4.40;;;17.50;99.90;;;;;;10443190;28;20191;-82
2022/05/30 13:03:25;;;;;;;4.70;3.80;;;17.90;99.90;;;;;;10445141;28;20123;-83
2022/05/30 13:08:45;;;;;;;7.43;5.85;;;18.10;99.90;;;;;;10450902;28;20067;-84
2022/05/30 13:13:52;;;;;;;4.63;4.05;;;17.30;99.90;;;;;;10450549;28;20550;-84
2022/05/30 13:18:53;;;;;;;4.15;3.40;;;17.60;99.90;;;;;;10446640;28;20033;-84
2022/05/30 13:23:54;;;;;;;3.47;2.97;;;18.40;99.90;;;;;;10421881;28;20116;-88
2022/05/30 13:28:59;;;;;;;6.30;2.30;;;18.80;99.90;;;;;;10433640;28;20024;-83
2022/05/30 13:34:00;;;;;;;2.30;2.10;;;18.90;99.90;;;;;;10438512;28;20044;-82
2022/05/30 13:39:03;;;;;;;2.40;2.20;;;19.00;99.90;;;;;;10434000;28;20057;-84
2022/05/30 13:44:16;;;;;;;4.05;2.55;;;18.90;99.90;;;;;;10448823;28;20052;-85
2022/05/30 13:49:52;;;;;;;3.92;2.90;;;19.00;99.90;;;;;;10439616;28;20033;-85
2022/05/30 13:54:57;;;;;;;5.53;3.65;;;19.00;99.90;;;;;;10437921;28;20040;-84
2022/05/30 14:00:04;;;;;;;4.68;2.75;;;19.00;99.90;;;;;;10422730;28;20221;-83
2022/05/30 14:05:11;;;;;;;4.63;2.58;;;18.60;99.90;;;;;;10441784;28;20029;-84
2022/05/30 14:10:16;;;;;;;3.95;2.33;;;18.50;99.90;;;;;;10425129;28;20090;-84
2022/05/30 14:15:25;;;;;;;3.80;2.38;;;18.40;99.90;;;;;;10447866;28;20048;-85
2022/05/30 14:20:26;;;;;;;3.28;1.92;;;18.20;99.90;;;;;;10449591;28;20040;-83
2022/05/30 14:25:47;;;;;;;3.53;2.15;;;18.30;99.90;;;;;;10454992;28;20032;-84
2022/05/30 14:30:48;;;;;;;3.03;2.08;;;18.40;99.90;;;;;;10449354;28;20695;-84
2022/05/30 14:35:49;;;;;;;2.90;2.28;;;18.00;99.90;;;;;;10422439;28;20031;-85
2022/05/30 14:40:50;;;;;;;2.47;1.92;;;17.70;97.40;;;;;;10455178;28;20036;-84
2022/05/30 14:46:02;;;;;;;4.78;2.42;;;17.50;98.70;;;;;;10446919;28;20424;-85
2022/05/30 14:51:15;;;;;;;4.13;2.30;;;18.00;99.90;;;;;;10424734;28;20036;-83
2022/05/30 14:56:21;;;;;;;4.43;2.05;;;18.10;99.90;;;;;;10445230;28;20020;-85
2022/05/30 15:01:23;;;;;;;3.58;1.88;;;17.70;96.80;;;;;;10446525;28;20028;-84
2022/05/30 15:06:33;;;;;;;4.18;2.72;;;17.40;95.30;;;;;;10445829;28;20037;-84
2022/05/30 15:11:34;;;;;;;5.50;2.63;;;17.10;97.70;;;;;;10438617;28;20067;-85
2022/05/30 15:16:35;;;;;;;3.30;2.00;;;17.10;93.20;;;;;;10429532;28;20025;-84
2022/05/30 15:21:50;;;;;;;2.35;2.10;;;17.10;93.10;;;;;;10420027;28;20463;-83
2022/05/30 15:26:51;;;;;;;5.03;2.28;;;17.40;91.30;;;;;;10431541;28;20128;-84
2022/05/30 15:31:53;;;;;;;3.60;2.40;;;17.60;87.90;;;;;;10437910;28;20764;-83
2022/05/30 15:36:54;;;;;;;3.83;2.90;;;17.50;84.70;;;;;;10442668;28;20790;-84
2022/05/30 15:42:03;;;;;;;6.32;3.20;;;17.20;85.90;;;;;;10440153;28;20044;-84
2022/05/30 15:47:04;;;;;;;3.53;3.22;;;17.10;86.40;;;;;;10425263;28;20056;-85
2022/05/30 15:52:16;;;;;;;4.85;3.88;;;17.00;85.90;;;;;;10442042;28;20139;-84
2022/05/30 15:57:17;;;;;;;5.40;3.92;;;16.90;82.90;;;;;;10446249;28;20114;-82
2022/05/30 16:02:20;;;;;;;5.32;3.88;;;16.80;83.50;;;;;;10446076;28;20472;-83
2022/05/30 16:07:22;;;;;;;8.15;3.67;;;16.80;83.60;;;;;;10442227;28;20025;-82
2022/05/30 16:12:32;;;;;;;3.58;2.72;;;16.70;82.10;;;;;;10447636;28;20057;-84
2022/05/30 16:17:34;;;;;;;3.47;2.60;;;16.60;82.10;;;;;;10446649;28;20623;-83
2022/05/30 16:22:37;;;;;;;3.20;2.72;;;16.50;82.80;;;;;;10438902;28;20031;-82
2022/05/30 16:27:38;;;;;;;4.13;2.47;;;16.50;83.60;;;;;;10443810;28;20033;-82
2022/05/30 16:32:39;;;;;;;6.10;2.28;;;16.60;83.40;;;;;;10440598;28;20392;-82
2022/05/30 16:37:41;;;;;;;2.30;2.00;;;16.50;82.80;;;;;;10447051;28;20032;-82
2022/05/30 16:42:42;;;;;;;4.40;1.88;;;16.50;83.60;;;;;;10445414;28;20028;-81
2022/05/30 16:47:42;;;;;;;2.10;1.90;;;16.50;81.60;;;;;;10445886;28;20493;-82
2022/05/30 16:52:43;;;;;;;2.42;1.90;;;16.30;81.00;;;;;;10453914;28;20523;-82
2022/05/30 16:57:45;;;;;;;2.83;2.08;;;16.20;82.70;;;;;;10450275;28;20484;-81
2022/05/30 17:02:47;;;;;;;2.30;1.48;;;16.10;82.60;;;;;;10442408;28;20028;-82
2022/05/30 17:07:50;;;;;;;2.72;1.77;;;16.10;81.20;;;;;;10442982;28;20438;-81
2022/05/30 17:12:53;;;;;;;3.70;1.63;;;15.90;81.20;;;;;;10442182;28;20504;-82
2022/05/30 17:17:54;;;;;;;3.33;1.80;;;15.90;80.60;;;;;;10444694;28;20569;-85
2022/05/30 17:22:54;;;;;;;3.03;1.73;;;15.80;81.60;;;;;;10435799;28;20070;-85
2022/05/30 17:33:16;;;;;;;2.40;2.00;;;15.60;82.60;;;;;;10439504;28;20049;-82
2022/05/30 17:38:17;;;;;;;3.72;2.10;;;15.40;86.10;;;;;;10439120;28;20020;-83
2022/05/30 17:43:20;;;;;;;4.35;2.20;;;15.00;88.80;;;;;;10459022;28;20068;-81
2022/05/30 17:48:30;;;;;;;3.80;2.42;;;14.80;89.40;;;;;;10440715;28;20052;-82
2022/05/30 17:53:35;;;;;;;4.15;2.05;;;14.50;90.20;;;;;;10454730;28;20075;-81
2022/05/30 17:58:36;;;;;;;5.65;2.75;;;14.20;90.90;;;;;;10458285;28;20045;-82
2022/05/30 18:03:37;;;;;;;8.18;4.72;;;13.80;91.90;;;;;;10448728;28;20028;-82
2022/05/30 18:08:58;;;;;;;8.75;5.00;;;13.50;93.20;;;;;;10461267;28;20415;-80
2022/05/30 18:14:46;;;;;;;7.80;3.80;;;13.10;95.10;;;;;;10454043;28;20075;-83
2022/05/30 18:20:03;;;;;;;5.10;3.22;;;12.80;97.00;;;;;;10450675;28;20116;-85
2022/05/30 18:25:20;;;;;;;6.13;3.78;;;12.60;99.90;;;;;;10437787;28;20140;-83
2022/05/30 18:30:23;;;;;;;7.45;4.57;;;12.40;99.90;;;;;;10449251;28;20057;-83
2022/05/30 18:35:45;;;;;;;11.85;6.22;;;12.20;99.90;;;;;;10452706;28;20786;-81
2022/05/30 18:41:00;;;;;;;12.25;6.47;;;12.00;99.90;;;;;;10445205;28;20088;-82
2022/05/30 18:46:07;;;;;;;9.97;5.17;;;11.90;99.90;;;;;;10457220;28;20412;-81
2022/05/30 18:51:08;;;;;;;9.00;4.38;;;11.70;99.90;;;;;;10440824;28;20029;-82
2022/05/30 18:56:20;;;;;;;8.60;4.30;;;11.70;99.90;;;;;;10442583;28;20487;-85
2022/05/30 19:01:25;;;;;;;7.78;4.70;;;11.60;99.90;;;;;;10435869;28;20031;-85
2022/05/30 19:06:26;;;;;;;7.90;4.32;;;11.60;99.90;;;;;;10429839;28;20098;-83
2022/05/30 19:11:59;;;;;;;6.70;4.15;;;11.60;99.90;;;;;;10453943;28;20068;-83
2022/05/30 19:17:22;;;;;;;5.43;3.85;;;11.70;99.90;;;;;;10443590;28;20025;-80
2022/05/30 19:22:22;;;;;;;6.25;4.55;;;11.90;99.90;;;;;;10443659;28;20032;-80
2022/05/30 19:27:25;;;;;;;7.07;4.40;;;12.00;99.90;;;;;;10458713;28;20029;-81
2022/05/30 19:32:29;;;;;;;6.68;3.92;;;12.10;99.90;;;;;;10445152;28;20098;-80
2022/05/30 19:37:29;;;;;;;5.93;4.05;;;12.10;99.90;;;;;;10451165;28;20544;-80
2022/05/30 19:42:34;;;;;;;7.93;5.10;;;12.20;99.90;;;;;;10450828;28;20029;-81
2022/05/30 19:47:35;;;;;;;8.82;5.30;;;12.00;99.90;;;;;;10444611;28;20033;-84
2022/05/30 19:52:36;;;;;;;10.48;6.60;;;11.80;99.90;;;;;;10430739;28;20041;-80
2022/05/30 19:57:38;;;;;;;8.00;5.07;;;11.50;99.90;;;;;;10446952;28;20033;-81
2022/05/30 20:02:39;;;;;;;8.55;5.00;;;11.40;99.90;;;;;;10439014;28;20033;-80
2022/05/30 20:07:40;;;;;;;9.05;5.10;;;11.30;99.90;;;;;;10443321;28;20481;-81
2022/05/30 20:12:41;;;;;;;10.18;6.28;;;11.10;99.90;;;;;;10448224;28;20444;-81
2022/05/30 20:17:43;;;;;;;12.85;5.80;;;11.10;99.90;;;;;;10450838;28;20446;-81
2022/05/30 20:22:44;;;;;;;11.82;7.47;;;11.10;99.90;;;;;;10455502;28;20789;-81
2022/05/30 20:27:46;;;;;;;10.70;7.05;;;11.10;99.90;;;;;;10453286;28;20029;-80
2022/05/30 20:32:46;;;;;;;13.68;7.78;;;11.00;99.90;;;;;;10476138;23;20052;-81
2022/05/30 20:37:47;;;;;;;13.48;8.75;;;10.90;99.90;;;;;;10550722;28;20036;-81
2022/05/30 20:43:04;;;;;;;16.33;9.57;;;10.70;99.90;;;;;;10560744;27;20028;-81
2022/05/30 20:48:05;;;;;;;14.00;9.00;;;10.70;99.90;;;;;;10540103;27;20035;-81
2022/05/30 20:53:06;;;;;;;12.73;7.80;;;10.60;99.90;;;;;;10534160;28;20040;-81
2022/05/30 20:58:07;;;;;;;13.52;8.23;;;10.60;99.90;;;;;;10536443;28;20024;-81
2022/05/30 21:03:09;;;;;;;10.18;7.20;;;10.50;99.90;;;;;;10548492;27;20028;-81
2022/05/30 21:08:10;;;;;;;9.10;6.55;;;10.50;99.90;;;;;;10516964;22;20056;-81
2022/05/30 21:13:11;;;;;;;8.90;6.43;;;10.50;99.90;;;;;;10500560;28;20062;-81
2022/05/30 21:18:25;;;;;;;9.50;6.35;;;10.50;99.90;;;;;;10498734;28;20025;-80
2022/05/30 21:23:25;;;;;;;10.10;6.30;;;10.50;99.90;;;;;;10505616;28;20130;-80
2022/05/30 21:28:26;;;;;;;25.77;13.98;;;10.60;99.90;;;;;;10509889;28;20114;-81
2022/05/30 21:33:35;;;;;;;22.83;12.85;;;10.60;99.90;;;;;;10520487;28;20090;-81
2022/05/30 21:38:35;;;;;;;18.67;11.70;;;10.50;99.90;;;;;;10497351;28;20035;-80
2022/05/30 21:43:36;;;;;;;20.83;11.07;;;10.30;99.90;;;;;;10493058;28;20060;-80
2022/05/30 21:48:36;;;;;;;14.43;9.03;;;10.00;99.90;;;;;;10497735;28;20029;-80
2022/05/30 21:53:37;;;;;;;17.50;11.07;;;9.80;99.90;;;;;;10486402;28;20669;-80
2022/05/30 21:58:39;;;;;;;17.50;10.80;;;9.70;99.90;;;;;;10497910;28;20067;-80
2022/05/30 22:03:40;;;;;;;18.83;12.00;;;9.70;99.90;;;;;;10494576;28;20421;-80
2022/05/30 22:08:41;;;;;;;20.80;10.80;;;9.50;99.90;;;;;;10496731;28;20052;-80
2022/05/30 22:13:43;;;;;;;18.83;11.20;;;9.50;99.90;;;;;;10499123;28;20442;-80
2022/05/30 22:18:43;;;;;;;16.60;10.17;;;9.60;99.90;;;;;;10490162;28;20417;-80
2022/05/30 22:23:44;;;;;;;17.10;11.10;;;9.60;99.90;;;;;;10504346;28;20111;-80
2022/05/30 22:28:49;;;;;;;20.27;13.20;;;9.80;99.90;;;;;;10545226;28;20109;-81
2022/05/30 22:33:50;;;;;;;24.13;15.27;;;10.00;99.90;;;;;;10501105;28;20076;-80
2022/05/30 22:38:51;;;;;;;23.30;15.23;;;10.10;99.90;;;;;;10510407;28;20107;-81
2022/05/30 22:43:52;;;;;;;21.75;14.07;;;10.20;99.90;;;;;;10509321;28;20376;-80
2022/05/30 22:48:52;;;;;;;25.58;15.38;;;10.40;99.90;;;;;;10509133;28;20028;-80
2022/05/30 22:53:53;;;;;;;26.77;17.17;;;10.60;99.90;;;;;;10526561;28;20506;-80
2022/05/30 22:58:54;;;;;;;24.88;15.75;;;10.80;99.90;;;;;;10510037;28;20484;-80
2022/05/30 23:03:54;;;;;;;25.27;17.65;;;10.70;99.90;;;;;;10524553;28;20093;-80
2022/05/30 23:08:55;;;;;;;26.95;18.08;;;10.70;99.90;;;;;;10515230;28;20056;-80
2022/05/30 23:14:00;;;;;;;26.33;17.58;;;10.70;99.90;;;;;;10499913;28;20135;-81
2022/05/30 23:19:03;;;;;;;23.50;16.17;;;10.70;99.90;;;;;;10527345;28;20116;-81
2022/05/30 23:24:04;;;;;;;24.83;16.80;;;10.80;99.90;;;;;;10530248;28;20277;-81
2022/05/30 23:29:07;;;;;;;30.65;20.90;;;10.80;99.90;;;;;;10501155;28;20036;-81
2022/05/30 23:34:08;;;;;;;23.83;16.85;;;10.70;99.90;;;;;;10492563;28;20041;-81
2022/05/30 23:39:08;;;;;;;28.83;19.23;;;10.50;99.90;;;;;;10507905;28;20033;-81
2022/05/30 23:49:29;;;;;;;29.40;18.53;;;10.30;99.90;;;;;;10494326;28;20060;-81
2022/05/30 23:54:31;;;;;;;28.73;19.27;;;10.20;99.90;;;;;;10501005;28;20070;-81
2022/05/30 23:59:31;;;;;;;24.95;16.42;;;10.30;99.90;;;;;;10520204;28;20434;-81
